Time;durP1;ratioP1;P1;durP2;ratioP2;P2;SDS_P1;SDS_P2;PMS_P1;PMS_P2;Temp;Humidity;BMP_temperature;BMP_pressure;BME280_temperature;BME280_humidity;BME280_pressure;Samples;Min_cycle;Max_cycle;Signal;HPM_P1;HPM_P2
2021/07/30 00:00:44;;;;;;;1.43;0.60;;;;;;;16.38;66.15;99253.56;5048806;28;20202;-66
2021/07/30 00:03:13;;;;;;;0.60;0.50;;;;;;;16.41;66.38;99257.78;5048208;28;20240;-66
2021/07/30 00:05:41;;;;;;;3.90;0.80;;;;;;;16.48;65.73;99242.50;5050367;28;20230;-66
2021/07/30 00:08:09;;;;;;;0.50;0.50;;;;;;;16.48;66.27;99244.38;5049060;28;20208;-66
2021/07/30 00:10:37;;;;;;;0.50;0.50;;;;;;;16.56;65.46;99247.91;5048632;28;20202;-66
2021/07/30 00:13:05;;;;;;;2.23;0.60;;;;;;;16.49;65.90;99227.94;5047788;28;20598;-66
2021/07/30 00:15:35;;;;;;;2.03;0.60;;;;;;;16.57;65.76;99227.06;5050011;28;20194;-66
2021/07/30 00:18:04;;;;;;;2.07;0.60;;;;;;;16.54;65.65;99225.56;5050345;28;20248;-66
2021/07/30 00:20:32;;;;;;;0.60;0.60;;;;;;;16.51;66.65;99225.03;5050092;28;20198;-66
2021/07/30 00:23:01;;;;;;;0.67;0.53;;;;;;;16.61;65.84;99225.66;5050023;28;20262;-66
2021/07/30 00:25:29;;;;;;;0.53;0.50;;;;;;;16.45;66.64;99215.75;5049787;28;20204;-66
2021/07/30 00:27:57;;;;;;;1.07;0.67;;;;;;;16.61;65.38;99206.69;5050042;28;20216;-66
2021/07/30 00:30:25;;;;;;;0.50;0.50;;;;;;;16.62;66.00;99202.97;5049315;28;20206;-66
2021/07/30 00:32:55;;;;;;;0.73;0.60;;;;;;;16.58;66.04;99210.59;5049662;28;20194;-66
2021/07/30 00:35:23;;;;;;;0.50;0.50;;;;;;;16.61;66.26;99204.81;5049673;28;20206;-66
2021/07/30 00:37:51;;;;;;;0.40;0.40;;;;;;;16.55;66.36;99207.41;5049076;28;20200;-66
2021/07/30 00:40:19;;;;;;;0.57;0.57;;;;;;;16.64;65.67;99192.78;5050072;28;20205;-65
2021/07/30 00:42:50;;;;;;;0.70;0.70;;;;;;;16.63;66.03;99202.78;5048847;28;20233;-66
2021/07/30 00:45:19;;;;;;;0.47;0.47;;;;;;;16.63;65.75;99199.22;5050234;28;20663;-65
2021/07/30 00:47:51;;;;;;;0.50;0.50;;;;;;;16.68;66.14;99199.53;5049630;28;20220;-65
2021/07/30 00:50:20;;;;;;;0.90;0.53;;;;;;;16.55;66.13;99181.16;5049856;28;20200;-65
2021/07/30 00:52:51;;;;;;;3.73;0.57;;;;;;;16.59;65.72;99174.34;5047798;28;20217;-66
2021/07/30 00:55:20;;;;;;;0.93;0.60;;;;;;;16.67;65.02;99178.88;5050212;28;20206;-66
2021/07/30 00:57:49;;;;;;;2.30;0.67;;;;;;;16.65;66.01;99172.78;5047096;28;20679;-66
2021/07/30 01:00:19;;;;;;;0.50;0.50;;;;;;;16.63;66.56;99174.81;5049399;28;20670;-66
2021/07/30 01:02:47;;;;;;;1.20;0.60;;;;;;;16.51;66.43;99151.88;5040627;28;20210;-65
2021/07/30 01:05:17;;;;;;;0.60;0.60;;;;;;;16.67;66.18;99174.31;5045020;28;20554;-65
2021/07/30 01:07:46;;;;;;;0.60;0.60;;;;;;;16.45;67.45;99154.28;5049096;28;20229;-65
2021/07/30 01:10:14;;;;;;;0.40;0.40;;;;;;;16.59;66.84;99165.38;5047583;28;20727;-65
2021/07/30 01:12:44;;;;;;;0.50;0.50;;;;;;;16.57;67.38;99164.72;5045725;28;20297;-65
2021/07/30 01:15:12;;;;;;;0.83;0.57;;;;;;;16.57;66.57;99143.03;5059798;28;20202;-66
2021/07/30 01:17:40;;;;;;;0.93;0.70;;;;;;;16.64;66.63;99158.38;5046884;28;20505;-66
2021/07/30 01:20:11;;;;;;;0.53;0.53;;;;;;;16.67;66.39;99157.19;5045666;28;20209;-66
2021/07/30 01:22:50;;;;;;;0.43;0.43;;;;;;;16.52;67.78;99153.53;5048414;28;20214;-65
2021/07/30 01:25:20;;;;;;;0.57;0.57;;;;;;;16.55;67.64;99151.34;5048996;28;20206;-66
2021/07/30 01:27:49;;;;;;;0.60;0.57;;;;;;;16.56;68.46;99152.19;5046612;28;20225;-65
2021/07/30 01:30:19;;;;;;;0.60;0.60;;;;;;;16.45;68.91;99150.72;5043431;28;20733;-66
2021/07/30 01:32:47;;;;;;;0.90;0.53;;;;;;;16.52;68.52;99146.25;5047905;28;20560;-66
2021/07/30 01:35:15;;;;;;;0.70;0.70;;;;;;;16.37;70.70;99137.25;5048485;28;20206;-66
2021/07/30 01:37:44;;;;;;;3.30;0.60;;;;;;;16.48;69.00;99135.97;5045516;28;20360;-66
2021/07/30 01:40:14;;;;;;;0.53;0.53;;;;;;;16.56;67.62;99141.34;5048297;28;20194;-66
2021/07/30 01:42:43;;;;;;;0.80;0.80;;;;;;;16.50;70.41;99136.63;5047561;28;20296;-66
2021/07/30 01:45:11;;;;;;;2.23;0.80;;;;;;;16.38;70.24;99131.66;5048318;28;20197;-66
2021/07/30 01:47:39;;;;;;;1.60;0.87;;;;;;;16.27;71.93;99132.06;5048409;28;20654;-65
2021/07/30 01:50:09;;;;;;;0.70;0.70;;;;;;;16.29;71.92;99140.03;5048075;28;20205;-64
2021/07/30 01:52:38;;;;;;;1.90;0.80;;;;;;;16.33;70.82;99130.50;5049265;28;20209;-67
2021/07/30 01:55:06;;;;;;;0.87;0.67;;;;;;;16.25;72.43;99139.53;5047875;28;20198;-66
2021/07/30 01:57:36;;;;;;;2.13;0.90;;;;;;;16.08;73.84;99124.41;5045566;28;20213;-66
2021/07/30 02:00:05;;;;;;;0.70;0.70;;;;;;;16.13;72.68;99127.41;5048733;28;20206;-67
2021/07/30 02:02:39;;;;;;;0.80;0.80;;;;;;;15.91;73.90;99099.28;5047234;28;20264;-67
2021/07/30 02:05:08;;;;;;;1.00;0.87;;;;;;;16.08;73.02;99135.25;5048254;28;20292;-67
2021/07/30 02:07:37;;;;;;;1.33;0.73;;;;;;;16.02;74.54;99122.41;5042708;28;20677;-67
2021/07/30 02:10:06;;;;;;;0.77;0.70;;;;;;;15.73;75.32;99085.19;5048201;28;20208;-67
2021/07/30 02:14:15;;;;;;;0.60;0.60;;;;;;;15.95;75.70;99116.03;5048499;28;20212;-67
2021/07/30 02:15:24;;;;;;;4.50;1.13;;;;;;;16.03;74.62;99118.69;5048268;28;20258;-67
2021/07/30 02:17:52;;;;;;;1.67;1.07;;;;;;;15.97;76.09;99114.84;5048201;28;20569;-67
2021/07/30 02:20:20;;;;;;;2.53;0.87;;;;;;;15.89;75.95;99119.44;5048341;28;20761;-66
2021/07/30 02:22:48;;;;;;;1.40;0.90;;;;;;;15.98;75.62;99110.25;5047318;28;20232;-66
2021/07/30 02:25:16;;;;;;;2.00;1.00;;;;;;;15.99;75.23;99115.50;5045404;28;20205;-66
2021/07/30 02:27:46;;;;;;;3.30;0.83;;;;;;;15.92;77.09;99110.94;5048722;28;20208;-66
2021/07/30 02:30:14;;;;;;;1.07;0.90;;;;;;;15.83;77.42;99108.31;5008653;28;20238;-67
2021/07/30 02:32:45;;;;;;;1.43;0.90;;;;;;;15.80;77.83;99114.06;5009604;28;20207;-67
2021/07/30 02:35:13;;;;;;;1.03;0.80;;;;;;;15.82;77.38;99114.75;5012643;28;20201;-67
2021/07/30 02:37:41;;;;;;;0.87;0.80;;;;;;;15.86;76.78;99111.69;5012798;28;20202;-67
2021/07/30 02:40:10;;;;;;;5.03;1.07;;;;;;;15.88;76.81;99093.38;5012987;28;20299;-66
2021/07/30 02:42:39;;;;;;;0.73;0.73;;;;;;;15.98;76.57;99099.44;5013210;28;20251;-67
2021/07/30 02:45:09;;;;;;;1.40;0.80;;;;;;;15.92;75.92;99090.16;5010788;28;20202;-67
2021/07/30 02:47:37;;;;;;;0.93;0.80;;;;;;;15.81;77.44;99088.69;5013636;28;20211;-67
2021/07/30 02:50:06;;;;;;;1.43;0.90;;;;;;;15.73;78.29;99077.91;5013471;28;20203;-66
2021/07/30 02:52:34;;;;;;;2.73;1.00;;;;;;;15.81;78.31;99087.84;5012552;28;20200;-67
2021/07/30 02:55:04;;;;;;;0.93;0.70;;;;;;;15.76;78.82;99080.25;5012593;28;20197;-67
2021/07/30 02:57:32;;;;;;;1.33;1.17;;;;;;;15.70;79.15;99069.31;5012314;28;20200;-66
2021/07/30 03:00:00;;;;;;;1.07;1.07;;;;;;;15.69;80.56;99073.88;5012127;28;20212;-67
2021/07/30 03:02:30;;;;;;;2.20;1.10;;;;;;;15.68;80.39;99069.50;5012556;28;20203;-67
2021/07/30 03:04:59;;;;;;;1.57;1.20;;;;;;;15.41;81.43;99022.09;5012394;28;20206;-66
2021/07/30 03:07:27;;;;;;;1.20;1.07;;;;;;;15.48;79.92;99039.28;5010184;28;20209;-66
2021/07/30 03:09:55;;;;;;;1.00;1.00;;;;;;;15.47;79.37;99025.94;5010779;28;20207;-66
2021/07/30 03:12:24;;;;;;;0.80;0.80;;;;;;;15.66;80.37;99059.88;5008292;28;20207;-66
2021/07/30 03:14:52;;;;;;;1.10;1.00;;;;;;;15.71;80.15;99049.34;5011083;28;20195;-66
2021/07/30 03:17:20;;;;;;;1.43;1.00;;;;;;;15.65;80.46;99033.84;5012187;28;20712;-66
2021/07/30 03:19:49;;;;;;;1.83;1.03;;;;;;;15.67;79.47;99040.75;5009800;28;20214;-66
2021/07/30 03:22:17;;;;;;;1.40;1.10;;;;;;;15.76;78.99;99028.00;5021228;28;20213;-67
2021/07/30 03:24:45;;;;;;;5.43;1.10;;;;;;;15.67;79.78;99024.50;5009215;28;20230;-67
2021/07/30 03:27:14;;;;;;;1.83;1.10;;;;;;;15.68;80.34;99017.22;5020694;28;20203;-65
2021/07/30 03:29:42;;;;;;;1.67;1.10;;;;;;;15.64;79.57;99008.63;5042901;28;20705;-66
2021/07/30 03:32:10;;;;;;;1.20;1.10;;;;;;;15.60;80.13;98998.31;5050406;28;20209;-66
2021/07/30 03:34:38;;;;;;;1.03;1.00;;;;;;;15.79;78.27;99014.94;5050342;28;20198;-65
2021/07/30 03:37:08;;;;;;;1.70;0.93;;;;;;;15.61;79.72;99006.28;5065434;28;20292;-66
2021/07/30 03:39:37;;;;;;;1.07;1.07;;;;;;;15.82;76.41;98998.34;5050761;28;20217;-67
2021/07/30 03:42:05;;;;;;;1.10;1.00;;;;;;;15.84;76.91;98998.16;5050270;28;20678;-69
2021/07/30 03:44:33;;;;;;;1.10;1.00;;;;;;;15.82;77.09;99003.75;5049703;28;20222;-69
2021/07/30 03:47:02;;;;;;;1.17;1.07;;;;;;;15.65;77.86;98974.28;5051132;28;20233;-65
2021/07/30 03:49:30;;;;;;;3.10;1.10;;;;;;;15.75;78.33;98986.56;5051087;28;20683;-65
2021/07/30 03:51:58;;;;;;;1.47;1.00;;;;;;;15.66;78.98;98982.22;5050804;28;20662;-65
2021/07/30 03:54:27;;;;;;;1.03;0.90;;;;;;;15.74;78.01;98994.84;5048173;28;20194;-65
2021/07/30 03:56:56;;;;;;;1.53;1.20;;;;;;;15.56;79.70;98976.16;5051523;28;20626;-65
2021/07/30 03:59:24;;;;;;;4.60;1.00;;;;;;;15.67;79.06;98975.78;5051240;28;20567;-65
2021/07/30 04:01:52;;;;;;;1.13;1.07;;;;;;;15.66;79.31;98970.56;5050827;28;20564;-67
2021/07/30 04:04:20;;;;;;;1.83;1.00;;;;;;;15.71;79.18;98977.13;5050863;28;20217;-69
2021/07/30 04:06:48;;;;;;;2.20;1.07;;;;;;;15.68;78.99;98974.78;5049913;28;20689;-67
2021/07/30 04:09:16;;;;;;;2.57;1.10;;;;;;;15.75;77.79;98966.75;5049862;28;20554;-67
2021/07/30 04:11:46;;;;;;;3.67;1.20;;;;;;;15.69;79.87;98967.50;5058722;28;20207;-67
2021/07/30 04:14:14;;;;;;;1.83;1.20;;;;;;;15.63;80.65;98957.41;5051531;28;20186;-67
2021/07/30 04:16:42;;;;;;;1.10;1.00;;;;;;;15.60;80.63;98955.88;5050981;28;20194;-67
2021/07/30 04:19:10;;;;;;;1.67;1.10;;;;;;;15.48;81.78;98949.16;5051200;28;20190;-67
2021/07/30 04:21:38;;;;;;;3.83;1.40;;;;;;;15.46;81.39;98957.47;5050907;28;20567;-67
2021/07/30 04:24:06;;;;;;;0.90;0.90;;;;;;;15.26;84.39;98942.69;5036542;28;20221;-67
2021/07/30 04:26:35;;;;;;;2.10;1.40;;;;;;;15.28;84.29;98932.53;5051614;28;20685;-69
2021/07/30 04:29:04;;;;;;;1.30;1.20;;;;;;;15.22;85.22;98936.81;5050639;28;20713;-67
2021/07/30 04:31:32;;;;;;;1.70;1.30;;;;;;;15.23;84.79;98924.97;5048049;28;20212;-67
2021/07/30 04:34:00;;;;;;;1.37;1.10;;;;;;;15.26;85.44;98928.34;5061429;28;20349;-66
2021/07/30 04:36:29;;;;;;;0.97;0.97;;;;;;;15.16;86.54;98921.31;5050058;28;20658;-67
2021/07/30 04:38:57;;;;;;;1.00;1.00;;;;;;;15.28;85.44;98929.00;5049943;28;20574;-68
2021/07/30 04:41:25;;;;;;;3.87;1.23;;;;;;;15.09;86.82;98930.31;5050106;28;20675;-67
2021/07/30 04:43:53;;;;;;;1.87;1.10;;;;;;;15.17;86.88;98908.63;5049750;28;20225;-66
2021/07/30 04:46:22;;;;;;;1.30;1.20;;;;;;;15.18;86.90;98911.16;5050610;28;20662;-67
2021/07/30 04:48:50;;;;;;;1.17;1.10;;;;;;;15.12;87.40;98892.09;5049722;28;20202;-66
2021/07/30 04:51:19;;;;;;;1.53;1.20;;;;;;;15.16;87.54;98894.25;5049484;28;20575;-69
2021/07/30 04:53:49;;;;;;;2.77;1.23;;;;;;;15.25;86.25;98896.91;5048529;28;20205;-69
2021/07/30 04:56:19;;;;;;;4.13;1.30;;;;;;;14.73;87.39;98811.09;5049218;28;20213;-70
2021/07/30 04:58:51;;;;;;;1.83;1.10;;;;;;;15.26;86.82;98887.78;5049481;28;20198;-70
2021/07/30 05:01:19;;;;;;;1.20;1.10;;;;;;;15.28;87.68;98891.97;5040650;28;20194;-70
2021/07/30 05:03:49;;;;;;;2.93;1.33;;;;;;;15.22;87.95;98877.31;5047150;28;20210;-70
2021/07/30 05:06:19;;;;;;;3.23;1.30;;;;;;;15.30;88.28;98887.22;5049518;28;20293;-70
2021/07/30 05:08:47;;;;;;;2.27;1.30;;;;;;;15.28;87.63;98870.34;5048054;28;20659;-67
2021/07/30 05:11:15;;;;;;;2.50;1.50;;;;;;;15.26;87.22;98850.75;5049632;28;20445;-67
2021/07/30 05:13:44;;;;;;;2.87;1.40;;;;;;;15.50;86.37;98868.66;5049864;28;20204;-66
2021/07/30 05:16:14;;;;;;;3.33;1.50;;;;;;;15.46;86.74;98868.19;5049539;28;20269;-66
2021/07/30 05:18:43;;;;;;;2.30;1.47;;;;;;;15.43;86.80;98851.47;5049965;28;20733;-66
2021/07/30 05:21:13;;;;;;;5.80;1.70;;;;;;;15.41;87.38;98853.53;5045036;28;20216;-69
2021/07/30 05:23:42;;;;;;;1.97;1.60;;;;;;;15.42;87.05;98844.38;5049609;28;20670;-70
2021/07/30 05:26:10;;;;;;;4.50;1.83;;;;;;;15.49;86.98;98840.75;5048623;28;20216;-69
2021/07/30 05:28:38;;;;;;;2.53;1.50;;;;;;;15.50;86.48;98855.13;5048262;28;20260;-70
2021/07/30 05:31:06;;;;;;;2.90;1.80;;;;;;;15.53;85.79;98850.19;5049060;28;20204;-69
2021/07/30 05:33:36;;;;;;;3.00;1.60;;;;;;;15.57;86.42;98841.69;5050823;28;20202;-69
2021/07/30 05:36:04;;;;;;;1.93;1.57;;;;;;;15.54;86.19;98832.09;5049770;28;20224;-69
2021/07/30 05:38:34;;;;;;;3.10;1.67;;;;;;;15.63;85.62;98830.22;5048612;28;20209;-69
2021/07/30 05:41:02;;;;;;;5.63;1.80;;;;;;;15.63;85.19;98831.03;5047300;28;20220;-65
2021/07/30 05:43:30;;;;;;;9.33;1.50;;;;;;;15.63;85.21;98822.94;5048948;28;20213;-69
2021/07/30 05:45:58;;;;;;;2.27;1.77;;;;;;;15.62;85.18;98826.66;5048694;28;20221;-65
2021/07/30 05:48:26;;;;;;;2.73;1.83;;;;;;;15.64;85.31;98823.78;5049005;28;20194;-70
2021/07/30 05:50:54;;;;;;;4.03;1.97;;;;;;;15.58;85.63;98811.78;5049410;28;20693;-69
2021/07/30 05:53:23;;;;;;;1.60;1.50;;;;;;;15.67;84.81;98810.72;5047700;28;20242;-65
2021/07/30 05:55:52;;;;;;;2.80;1.60;;;;;;;15.67;85.38;98809.88;5042041;28;20205;-66
2021/07/30 05:58:20;;;;;;;3.93;1.70;;;;;;;15.67;84.65;98797.19;5049507;28;20194;-69
2021/07/30 06:00:48;;;;;;;2.93;1.70;;;;;;;15.80;82.59;98799.22;5064932;28;20203;-65
2021/07/30 06:03:17;;;;;;;3.00;1.60;;;;;;;15.59;83.97;98777.44;5049024;28;20690;-65
2021/07/30 06:05:45;;;;;;;2.23;1.93;;;;;;;15.75;83.13;98791.66;5049213;28;20283;-66
2021/07/30 06:08:13;;;;;;;5.97;1.80;;;;;;;15.45;83.67;98747.47;5049088;28;20202;-65
2021/07/30 06:10:42;;;;;;;2.60;1.63;;;;;;;15.40;83.75;98743.63;5053056;28;20284;-65
2021/07/30 06:13:11;;;;;;;4.07;1.80;;;;;;;15.79;83.45;98790.28;5053215;28;20205;-65
2021/07/30 06:15:40;;;;;;;4.63;1.80;;;;;;;15.78;84.02;98782.34;5053610;28;20228;-66
2021/07/30 06:18:08;;;;;;;2.83;1.77;;;;;;;15.74;83.67;98783.75;5053549;28;20201;-66
2021/07/30 06:20:36;;;;;;;3.60;1.90;;;;;;;15.75;83.95;98786.25;5053529;28;20316;-69
2021/07/30 06:23:05;;;;;;;4.20;2.00;;;;;;;15.70;85.01;98775.16;5053141;28;20206;-69
2021/07/30 06:25:33;;;;;;;3.73;2.03;;;;;;;15.66;85.20;98776.56;5053353;28;20225;-69
2021/07/30 06:28:02;;;;;;;2.60;1.80;;;;;;;15.69;84.66;98762.66;5052921;28;20202;-68
2021/07/30 06:30:32;;;;;;;2.57;1.73;;;;;;;15.84;83.70;98763.47;5068530;28;20564;-66
2021/07/30 06:33:00;;;;;;;2.80;1.80;;;;;;;15.61;84.29;98727.56;5053213;28;20697;-66
2021/07/30 06:35:29;;;;;;;4.87;1.63;;;;;;;15.89;83.44;98754.78;5053536;28;20319;-69
2021/07/30 06:37:58;;;;;;;4.03;2.00;;;;;;;15.89;84.05;98753.94;5053081;28;20301;-65
2021/07/30 06:40:26;;;;;;;2.83;1.97;;;;;;;15.86;85.04;98759.75;5051766;28;20198;-66
2021/07/30 06:42:54;;;;;;;3.23;1.87;;;;;;;15.90;85.41;98756.47;5052884;28;20565;-66
2021/07/30 06:45:22;;;;;;;4.77;1.70;;;;;;;15.95;84.00;98758.66;5052892;28;20220;-69
2021/07/30 06:47:52;;;;;;;3.43;1.90;;;;;;;15.94;84.10;98762.38;5052827;28;20575;-69
2021/07/30 06:50:20;;;;;;;5.17;2.10;;;;;;;15.90;84.37;98755.63;5052728;28;20198;-66
2021/07/30 06:52:48;;;;;;;3.87;1.70;;;;;;;16.00;83.23;98757.06;5052512;28;20193;-65
2021/07/30 06:55:16;;;;;;;3.53;1.83;;;;;;;15.92;83.56;98748.16;5052089;28;20291;-66
2021/07/30 06:57:44;;;;;;;5.60;1.90;;;;;;;15.91;84.94;98746.47;5052481;28;20198;-69
2021/07/30 07:00:13;;;;;;;4.57;1.80;;;;;;;15.96;85.49;98752.19;5050692;28;20206;-66
2021/07/30 07:02:41;;;;;;;2.27;1.80;;;;;;;16.02;83.90;98740.63;5048988;28;20202;-66
2021/07/30 07:05:11;;;;;;;2.47;1.60;;;;;;;16.03;84.35;98756.66;5049799;28;20376;-69
2021/07/30 07:07:40;;;;;;;1.97;1.50;;;;;;;16.09;83.68;98755.06;5045717;28;20217;-69
2021/07/30 07:10:08;;;;;;;6.63;1.83;;;;;;;16.06;85.25;98755.44;5049504;28;20190;-66
2021/07/30 07:12:37;;;;;;;8.00;1.87;;;;;;;16.10;85.71;98767.59;5050017;28;20217;-66
2021/07/30 07:15:07;;;;;;;2.27;1.77;;;;;;;16.14;85.69;98766.16;5051628;28;20205;-66
2021/07/30 07:17:35;;;;;;;2.43;1.70;;;;;;;16.27;84.82;98774.50;5051033;28;20225;-70
2021/07/30 07:20:03;;;;;;;2.87;1.43;;;;;;;16.31;84.44;98764.94;5051616;28;20210;-66
2021/07/30 07:22:33;;;;;;;2.17;1.43;;;;;;;16.52;82.68;98784.97;5048984;28;20222;-66
2021/07/30 07:25:03;;;;;;;3.93;1.63;;;;;;;16.54;84.07;98786.50;5050610;28;20218;-66
2021/07/30 07:27:31;;;;;;;3.27;1.50;;;;;;;16.73;82.93;98785.06;5048787;28;20208;-66
2021/07/30 07:29:59;;;;;;;2.53;1.43;;;;;;;16.86;82.65;98790.63;5048198;28;20252;-67
2021/07/30 07:32:27;;;;;;;1.53;1.30;;;;;;;16.99;82.95;98789.94;5044840;28;20285;-70
2021/07/30 07:34:56;;;;;;;2.47;1.50;;;;;;;17.10;82.45;98785.84;5051558;28;20206;-70
2021/07/30 07:37:24;;;;;;;1.87;1.40;;;;;;;17.45;83.44;98790.38;5049688;28;20206;-70
2021/07/30 07:39:54;;;;;;;2.13;1.40;;;;;;;17.91;83.01;98798.03;5047667;28;20199;-70
2021/07/30 07:42:22;;;;;;;1.60;1.33;;;;;;;18.42;78.82;98792.25;5047920;28;20204;-71
2021/07/30 07:44:51;;;;;;;1.40;1.30;;;;;;;18.85;77.54;98785.53;5047550;28;20205;-71
2021/07/30 07:47:19;;;;;;;1.30;1.20;;;;;;;19.37;73.07;98792.09;5050812;28;20198;-67
2021/07/30 07:49:47;;;;;;;1.10;1.10;;;;;;;19.79;72.56;98793.59;5051534;28;20228;-71
2021/07/30 07:52:15;;;;;;;1.23;1.13;;;;;;;20.16;73.01;98808.41;5053171;28;20693;-71
2021/07/30 07:55:00;;;;;;;1.20;0.90;;;;;;;20.43;70.94;98805.63;5049980;28;20646;-71
2021/07/30 07:57:28;;;;;;;1.33;1.23;;;;;;;20.59;69.53;98818.81;5052078;28;20208;-71
2021/07/30 07:59:57;;;;;;;1.47;1.10;;;;;;;20.24;70.88;98792.88;5050835;28;20194;-71
2021/07/30 08:02:25;;;;;;;2.20;0.90;;;;;;;20.42;69.32;98814.88;5044281;28;20285;-69
2021/07/30 08:04:53;;;;;;;3.00;0.90;;;;;;;20.56;67.83;98819.22;5040314;28;20205;-68
2021/07/30 08:07:21;;;;;;;1.00;1.00;;;;;;;20.76;68.97;98814.50;5042346;28;20226;-68
2021/07/30 08:09:51;;;;;;;1.33;1.10;;;;;;;21.14;68.29;98812.88;5038273;28;20225;-67
2021/07/30 08:12:21;;;;;;;1.00;0.90;;;;;;;21.45;65.95;98812.03;5049237;28;20196;-68
2021/07/30 08:14:49;;;;;;;1.20;1.10;;;;;;;21.60;66.18;98816.13;5049394;28;20194;-66
2021/07/30 08:17:17;;;;;;;1.70;0.80;;;;;;;21.78;64.09;98825.44;5064803;28;20205;-71
2021/07/30 08:19:47;;;;;;;1.20;1.00;;;;;;;21.69;63.82;98827.59;5049851;28;20209;-71
2021/07/30 08:22:15;;;;;;;0.70;0.70;;;;;;;21.57;64.02;98821.19;5049346;28;20570;-71
2021/07/30 08:24:44;;;;;;;0.80;0.80;;;;;;;21.32;65.56;98816.53;5050432;28;20194;-71
2021/07/30 08:27:14;;;;;;;1.17;0.80;;;;;;;21.34;65.55;98822.59;5060927;28;20226;-67
2021/07/30 08:29:43;;;;;;;1.43;0.90;;;;;;;21.42;63.20;98816.03;5037826;28;20244;-66
2021/07/30 08:32:11;;;;;;;0.83;0.83;;;;;;;21.45;64.30;98822.97;5050204;28;20209;-72
2021/07/30 08:34:40;;;;;;;1.27;1.10;;;;;;;21.51;63.94;98812.00;5049793;28;20588;-67
2021/07/30 08:37:09;;;;;;;0.70;0.70;;;;;;;21.98;62.25;98826.91;5042348;28;20194;-65
2021/07/30 08:39:38;;;;;;;2.63;1.03;;;;;;;22.09;63.81;98821.81;5047193;28;20804;-72
2021/07/30 08:42:06;;;;;;;1.00;0.90;;;;;;;22.41;60.28;98820.63;5049564;28;20205;-67
2021/07/30 08:44:34;;;;;;;0.90;0.90;;;;;;;22.35;60.10;98824.28;5049076;28;20239;-66
2021/07/30 08:47:04;;;;;;;0.83;0.83;;;;;;;22.18;60.39;98836.88;5049667;28;20214;-67
2021/07/30 08:49:35;;;;;;;0.93;0.93;;;;;;;22.28;60.00;98823.50;5049746;28;20216;-67
2021/07/30 08:52:08;;;;;;;1.03;0.80;;;;;;;22.52;59.21;98810.81;5048269;28;20666;-66
2021/07/30 08:54:36;;;;;;;1.10;0.80;;;;;;;22.65;58.47;98828.97;5048623;28;20198;-67
2021/07/30 08:57:08;;;;;;;0.70;0.70;;;;;;;22.65;57.75;98837.16;5046814;28;20418;-71
2021/07/30 08:59:39;;;;;;;1.13;0.83;;;;;;;22.37;58.75;98833.09;5048995;28;20212;-71
2021/07/30 09:02:09;;;;;;;1.33;1.00;;;;;;;22.44;59.27;98827.53;5047888;28;20225;-70
2021/07/30 09:04:38;;;;;;;0.90;0.87;;;;;;;22.63;60.41;98820.97;5049027;28;20225;-67
2021/07/30 09:07:07;;;;;;;0.80;0.80;;;;;;;22.96;58.39;98825.22;5048505;28;20217;-67
2021/07/30 09:09:35;;;;;;;1.07;0.97;;;;;;;23.03;58.20;98826.00;5049159;28;20205;-67
2021/07/30 09:12:06;;;;;;;1.37;0.80;;;;;;;23.14;58.10;98826.03;5049388;28;20198;-67
2021/07/30 09:14:36;;;;;;;0.80;0.80;;;;;;;23.29;56.93;98814.66;5048915;28;20309;-70
2021/07/30 09:17:06;;;;;;;2.73;0.80;;;;;;;23.29;56.88;98833.00;5048899;28;20194;-67
2021/07/30 09:19:36;;;;;;;0.77;0.70;;;;;;;23.38;54.94;98828.84;5048991;28;20738;-68
2021/07/30 09:22:07;;;;;;;0.87;0.63;;;;;;;23.27;54.76;98832.41;5047884;28;20769;-71
2021/07/30 09:24:38;;;;;;;3.23;0.73;;;;;;;23.05;54.57;98826.59;5048914;28;20236;-71
2021/07/30 09:27:08;;;;;;;1.47;0.70;;;;;;;23.16;55.67;98842.22;5046232;28;20228;-71
2021/07/30 09:29:38;;;;;;;0.83;0.83;;;;;;;23.07;55.72;98849.94;5048337;28;20236;-67
2021/07/30 09:32:09;;;;;;;0.80;0.80;;;;;;;22.88;55.42;98845.56;5046372;28;20201;-66
2021/07/30 09:34:40;;;;;;;0.90;0.90;;;;;;;22.99;55.18;98853.00;5048238;28;20575;-68
2021/07/30 09:37:10;;;;;;;0.70;0.70;;;;;;;22.82;54.76;98855.53;5046377;28;20304;-68
2021/07/30 09:39:41;;;;;;;2.40;0.60;;;;;;;22.45;56.54;98857.41;5046093;28;20654;-71
2021/07/30 09:42:16;;;;;;;0.60;0.60;;;;;;;22.31;56.37;98851.22;5062879;28;20233;-67
2021/07/30 09:44:49;;;;;;;0.80;0.80;;;;;;;22.26;56.77;98853.81;5048538;28;20198;-67
2021/07/30 09:47:24;;;;;;;1.37;0.90;;;;;;;22.48;56.90;98823.28;5048109;28;20312;-71
2021/07/30 09:49:55;;;;;;;1.77;0.87;;;;;;;23.19;54.56;98842.59;5044087;28;20241;-70
2021/07/30 09:52:25;;;;;;;1.13;1.07;;;;;;;23.06;55.64;98788.03;5047158;28;20202;-70
2021/07/30 09:54:55;;;;;;;0.93;0.90;;;;;;;23.57;54.32;98844.16;5045791;28;20205;-70
2021/07/30 09:57:25;;;;;;;0.73;0.73;;;;;;;23.79;54.03;98848.03;5047749;28;20186;-68
2021/07/30 09:59:57;;;;;;;1.20;1.00;;;;;;;23.95;52.63;98848.44;5045270;28;20194;-67
2021/07/30 10:02:27;;;;;;;2.90;0.90;;;;;;;24.03;52.29;98846.16;5048396;28;20793;-68
2021/07/30 10:04:58;;;;;;;0.83;0.83;;;;;;;23.76;51.85;98856.75;5048823;28;20259;-67
2021/07/30 10:07:28;;;;;;;2.10;0.80;;;;;;;23.80;51.69;98860.66;5048185;28;20305;-70
2021/07/30 10:10:01;;;;;;;1.03;0.70;;;;;;;23.72;52.25;98847.31;5048688;28;20198;-68
2021/07/30 10:12:30;;;;;;;0.97;0.83;;;;;;;23.84;51.92;98861.88;5049053;28;20232;-68
2021/07/30 10:15:01;;;;;;;0.70;0.70;;;;;;;23.71;51.62;98844.81;5048191;28;20799;-68
2021/07/30 10:17:31;;;;;;;0.63;0.63;;;;;;;23.64;51.73;98850.41;5048883;28;20551;-67
2021/07/30 10:20:02;;;;;;;0.83;0.80;;;;;;;23.90;50.81;98821.72;5049869;28;20205;-68
2021/07/30 10:22:40;;;;;;;1.53;0.80;;;;;;;24.31;49.94;98840.00;5048152;28;20198;-68
2021/07/30 10:25:15;;;;;;;0.80;0.80;;;;;;;24.26;50.71;98817.91;5048690;28;20193;-70
2021/07/30 10:27:45;;;;;;;1.03;0.70;;;;;;;24.60;49.31;98827.19;5048272;28;20225;-70
2021/07/30 10:30:15;;;;;;;3.83;2.13;;;;;;;24.95;49.10;98827.06;5046176;28;20202;-67
2021/07/30 10:32:54;;;;;;;0.97;0.80;;;;;;;25.08;48.75;98825.97;5047714;28;20216;-67
2021/07/30 10:35:44;;;;;;;0.80;0.80;;;;;;;25.35;47.36;98823.47;5047142;28;20198;-69
2021/07/30 10:38:15;;;;;;;1.95;0.70;;;;;;;25.54;47.68;98830.41;5057112;28;20209;-68
2021/07/30 10:40:44;;;;;;;1.50;0.73;;;;;;;25.80;46.61;98836.38;5058846;28;20586;-69
2021/07/30 10:43:14;;;;;;;1.90;0.70;;;;;;;26.26;44.63;98838.75;5047789;28;20194;-70
2021/07/30 10:45:43;;;;;;;3.08;0.73;;;;;;;26.43;43.67;98836.00;5045512;28;20264;-69
2021/07/30 10:48:38;;;;;;;0.73;0.70;;;;;;;26.52;42.41;98839.16;5048040;28;20257;-69
2021/07/30 10:51:33;;;;;;;0.60;0.60;;;;;;;25.94;43.60;98823.94;5059298;28;20298;-69
2021/07/30 10:54:02;;;;;;;4.88;0.90;;;;;;;25.62;45.73;98832.75;5028159;28;20237;-70
2021/07/30 10:56:50;;;;;;;0.80;0.80;;;;;;;25.70;45.27;98820.53;5050625;28;20285;-70
2021/07/30 10:59:21;;;;;;;0.80;0.80;;;;;;;25.58;45.62;98817.84;5048427;28;20206;-70
2021/07/30 11:02:00;;;;;;;1.05;0.80;;;;;;;25.52;45.61;98827.09;5050944;28;20986;-71
2021/07/30 11:04:30;;;;;;;0.60;0.60;;;;;;;25.21;46.45;98827.59;5050673;28;20650;-71
2021/07/30 11:07:03;;;;;;;2.70;0.80;;;;;;;24.93;46.47;98815.50;5056701;28;20632;-70
2021/07/30 11:09:39;;;;;;;1.10;1.00;;;;;;;25.07;47.08;98822.38;5049978;28;20240;-71
2021/07/30 11:12:17;;;;;;;1.13;0.73;;;;;;;25.18;46.03;98789.63;5049385;28;20688;-71
2021/07/30 11:14:50;;;;;;;1.08;0.90;;;;;;;26.02;45.10;98814.44;5049758;28;20201;-71
2021/07/30 11:17:19;;;;;;;1.02;0.90;;;;;;;26.25;44.19;98823.31;5064066;28;20661;-71
2021/07/30 11:19:48;;;;;;;1.00;0.68;;;;;;;26.25;43.29;98817.81;5064048;28;20202;-70
2021/07/30 11:22:20;;;;;;;1.23;0.68;;;;;;;26.59;43.38;98823.28;5048168;28;20697;-70
2021/07/30 11:24:49;;;;;;;0.75;0.75;;;;;;;26.84;41.39;98825.53;5045459;28;20690;-66
2021/07/30 11:27:19;;;;;;;0.68;0.68;;;;;;;26.87;42.44;98825.00;5047902;28;20705;-67
2021/07/30 11:29:49;;;;;;;0.85;0.70;;;;;;;26.97;42.67;98827.06;5046639;28;20234;-66
2021/07/30 11:32:18;;;;;;;0.60;0.60;;;;;;;27.31;41.35;98830.50;5050153;28;20201;-69
2021/07/30 11:34:48;;;;;;;0.60;0.60;;;;;;;27.68;40.63;98825.94;5051468;28;20261;-70
2021/07/30 11:37:24;;;;;;;0.82;0.77;;;;;;;27.70;40.40;98823.75;5044888;28;20261;-70
2021/07/30 11:39:54;;;;;;;0.65;0.65;;;;;;;28.00;39.30;98833.38;5050607;28;20638;-70
2021/07/30 11:42:26;;;;;;;1.52;0.80;;;;;;;27.91;40.05;98823.91;5050300;28;20195;-69
2021/07/30 11:44:57;;;;;;;0.65;0.65;;;;;;;27.50;39.63;98779.38;5048272;28;20674;-66